Time;durP1;ratioP1;P1;durP2;ratioP2;P2;SDS_P1;SDS_P2;PMS_P1;PMS_P2;Temp;Humidity;BMP_temperature;BMP_pressure;BME280_temperature;BME280_humidity;BME280_pressure;Samples;Min_cycle;Max_cycle;Signal;HPM_P1;HPM_P2
2023/01/14 00:02:23;;;;;;;15.20;7.70;;;;;;;6.53;83.90;99728.49;103401;1256;107593;-74
2023/01/14 00:04:51;;;;;;;13.00;7.50;;;;;;;6.51;83.81;99729.05;103294;1253;138406;-74
2023/01/14 00:07:18;;;;;;;12.90;7.80;;;;;;;6.50;83.76;99728.56;103412;1254;113545;-73
2023/01/14 00:09:45;;;;;;;14.40;8.00;;;;;;;6.48;83.90;99725.15;103269;1253;138966;-74
2023/01/14 00:12:12;;;;;;;12.40;8.20;;;;;;;6.47;83.82;99728.80;103471;1256;98296;-73
2023/01/14 00:14:39;;;;;;;12.60;7.50;;;;;;;6.45;83.75;99727.63;103419;1252;107371;-74
2023/01/14 00:17:06;;;;;;;13.30;7.90;;;;;;;6.45;83.76;99729.35;103254;1253;138099;-75
2023/01/14 00:19:34;;;;;;;15.40;8.40;;;;;;;6.44;83.77;99730.92;103531;1253;110787;-75
2023/01/14 00:22:01;;;;;;;12.70;7.20;;;;;;;6.43;83.68;99731.29;103290;1256;138244;-74
2023/01/14 00:24:28;;;;;;;16.60;8.40;;;;;;;6.43;83.80;99733.73;103445;1255;97839;-73
2023/01/14 00:26:56;;;;;;;12.70;7.50;;;;;;;6.41;83.55;99731.87;103364;1256;107050;-73
2023/01/14 00:29:26;;;;;;;14.20;7.20;;;;;;;6.40;83.66;99734.30;103277;1258;137951;-72
2023/01/14 00:31:56;;;;;;;12.00;7.10;;;;;;;6.40;83.49;99739.48;103517;1252;110506;-73
2023/01/14 00:34:25;;;;;;;12.20;6.90;;;;;;;6.40;83.34;99744.67;103232;1256;138098;-73
2023/01/14 00:36:52;;;;;;;11.10;6.60;;;;;;;6.40;83.41;99752.61;103437;1256;97688;-72
2023/01/14 00:39:20;;;;;;;12.90;6.60;;;;;;;6.41;83.26;99752.08;103280;1252;138141;-73
2023/01/14 00:41:48;;;;;;;11.60;6.60;;;;;;;6.41;83.09;99753.09;103283;1253;97743;-74
2023/01/14 00:44:15;;;;;;;12.10;7.10;;;;;;;6.41;83.01;99752.41;103442;1252;111523;-75
2023/01/14 00:46:43;;;;;;;11.70;6.20;;;;;;;6.41;82.85;99756.91;103247;1254;138133;-73
2023/01/14 00:49:16;;;;;;;11.20;6.10;;;;;;;6.40;82.57;99755.72;103349;1256;98609;-74
2023/01/14 00:51:46;;;;;;;11.90;6.10;;;;;;;6.40;82.65;99765.91;103303;1253;138219;-74
2023/01/14 00:54:13;;;;;;;9.50;5.40;;;;;;;6.40;82.64;99771.27;103413;1252;97794;-73
2023/01/14 00:56:40;;;;;;;11.20;6.10;;;;;;;6.40;82.39;99773.33;103401;1256;110774;-73
2023/01/14 00:59:16;;;;;;;11.00;6.10;;;;;;;6.41;82.46;99778.15;103345;1253;138639;-74
2023/01/14 01:01:43;;;;;;;13.30;6.20;;;;;;;6.41;82.28;99780.91;103921;1253;97801;-73
2023/01/14 01:04:10;;;;;;;8.80;5.70;;;;;;;6.41;82.19;99779.53;103343;1253;137931;-75
2023/01/14 01:06:38;;;;;;;11.60;6.30;;;;;;;6.41;82.08;99779.70;103417;1256;97851;-74
2023/01/14 01:09:05;;;;;;;14.30;6.60;;;;;;;6.42;82.05;99786.25;103443;1256;110731;-73
2023/01/14 01:11:33;;;;;;;11.40;5.90;;;;;;;6.41;81.94;99779.70;103382;1253;107918;-74
2023/01/14 01:14:00;;;;;;;11.60;6.20;;;;;;;6.40;81.96;99787.15;103373;1253;97894;-74
2023/01/14 01:16:28;;;;;;;10.50;6.10;;;;;;;6.40;81.89;99789.39;103288;1256;138001;-74
2023/01/14 01:18:57;;;;;;;11.30;6.20;;;;;;;6.39;81.73;99790.98;103351;1253;97896;-74
2023/01/14 01:21:27;;;;;;;12.20;6.00;;;;;;;6.37;81.60;99793.95;103374;1253;138759;-74
2023/01/14 01:23:54;;;;;;;8.90;5.50;;;;;;;6.36;81.48;99795.52;103435;1253;107133;-74
2023/01/14 01:26:23;;;;;;;14.90;6.30;;;;;;;6.36;81.40;99792.78;103499;1253;97743;-74
2023/01/14 01:28:52;;;;;;;12.20;6.10;;;;;;;6.35;81.34;99794.53;103424;1253;137973;-73
2023/01/14 01:31:21;;;;;;;8.70;5.00;;;;;;;6.34;81.30;99789.20;103414;1253;98166;-73
2023/01/14 01:33:52;;;;;;;10.10;5.50;;;;;;;6.34;81.01;99788.67;103385;1256;137966;-72
2023/01/14 01:36:22;;;;;;;12.30;6.00;;;;;;;6.33;81.05;99785.23;103480;1256;107802;-73
2023/01/14 01:38:49;;;;;;;12.00;5.70;;;;;;;6.33;81.00;99783.87;103415;1253;97883;-73
2023/01/14 01:41:21;;;;;;;13.20;6.40;;;;;;;6.32;80.78;99786.64;103197;1253;138626;-72
2023/01/14 01:44:07;;;;;;;9.10;5.40;;;;;;;6.31;80.82;99785.45;103487;1256;97789;-74
2023/01/14 01:46:35;;;;;;;11.60;5.70;;;;;;;6.30;80.79;99782.89;103616;1253;137913;-75
2023/01/14 01:49:08;;;;;;;13.70;5.30;;;;;;;6.29;80.87;99781.53;103334;1255;106663;-74
2023/01/14 01:51:42;;;;;;;9.50;5.70;;;;;;;6.28;80.68;99784.65;103350;1256;138797;-73
2023/01/14 01:54:09;;;;;;;11.60;5.80;;;;;;;6.28;80.62;99788.96;102695;1255;1002947;-73
2023/01/14 01:56:42;;;;;;;13.50;6.20;;;;;;;6.27;80.72;99792.43;103275;1258;97957;-74
2023/01/14 01:59:14;;;;;;;10.60;5.80;;;;;;;6.28;80.65;99794.14;103221;1257;138264;-73
2023/01/14 02:01:43;;;;;;;11.00;5.90;;;;;;;6.29;80.63;99790.52;103335;1256;107554;-74
2023/01/14 02:04:12;;;;;;;11.60;6.20;;;;;;;6.29;80.76;99793.98;103330;1253;138157;-75
2023/01/14 02:06:39;;;;;;;10.20;5.80;;;;;;;6.31;80.53;99792.02;103357;1252;108175;-72
2023/01/14 02:09:09;;;;;;;10.50;5.70;;;;;;;6.33;80.65;99791.63;103499;1253;97781;-74
2023/01/14 02:11:57;;;;;;;11.90;5.40;;;;;;;6.35;80.44;99788.14;103465;1254;111335;-72
2023/01/14 02:14:43;;;;;;;9.40;5.10;;;;;;;6.37;80.55;99794.66;103482;1253;109524;-73
2023/01/14 02:17:21;;;;;;;12.40;6.00;;;;;;;6.39;80.39;99803.59;103268;1253;138041;-73
2023/01/14 02:20:12;;;;;;;11.10;5.70;;;;;;;6.40;80.26;99800.79;103375;1251;123771;-73
2023/01/14 02:23:07;;;;;;;12.30;5.80;;;;;;;6.42;80.23;99802.98;103234;1253;138336;-72
2023/01/14 02:26:01;;;;;;;9.80;5.30;;;;;;;6.44;80.10;99807.08;103377;1254;110506;-74
2023/01/14 02:28:41;;;;;;;11.60;5.50;;;;;;;6.45;80.12;99804.98;103300;1256;139049;-73
2023/01/14 02:31:13;;;;;;;9.30;5.70;;;;;;;6.47;80.03;99806.88;103281;1253;97892;-74
2023/01/14 02:33:47;;;;;;;10.80;5.60;;;;;;;6.47;80.03;99811.35;103993;1256;138414;-75
2023/01/14 02:36:29;;;;;;;8.20;5.70;;;;;;;6.48;80.03;99810.48;103381;1252;97864;-74
2023/01/14 02:39:06;;;;;;;11.30;5.90;;;;;;;6.46;79.81;99811.71;103448;1256;111212;-73
2023/01/14 02:44:35;;;;;;;13.30;5.80;;;;;;;6.42;79.94;99820.94;103293;1254;97787;-73
2023/01/14 02:47:04;;;;;;;11.60;5.90;;;;;;;6.39;79.90;99823.60;103356;1253;137994;-73
2023/01/14 02:49:36;;;;;;;9.50;5.40;;;;;;;6.36;79.91;99824.37;103466;1254;97855;-74
2023/01/14 02:52:07;;;;;;;11.30;6.20;;;;;;;6.33;80.15;99821.50;103289;1252;138340;-74
2023/01/14 02:54:35;;;;;;;11.20;6.20;;;;;;;6.31;80.13;99826.20;103278;1257;108880;-75
2023/01/14 02:57:09;;;;;;;10.60;5.60;;;;;;;6.30;80.22;99828.83;103456;1254;97803;-74
2023/01/14 02:59:50;;;;;;;11.70;6.10;;;;;;;6.28;80.07;99825.92;103270;1253;107967;-74
2023/01/14 03:02:34;;;;;;;11.20;5.90;;;;;;;6.26;80.38;99827.50;103788;1253;97242;-73
2023/01/14 03:05:26;;;;;;;12.40;6.10;;;;;;;6.25;80.28;99834.45;103230;1256;137990;-73
2023/01/14 03:08:00;;;;;;;10.50;6.10;;;;;;;6.21;80.28;99834.70;103295;1257;107066;-73
2023/01/14 03:10:34;;;;;;;9.90;6.20;;;;;;;6.18;80.22;99841.52;103272;1259;138783;-73
2023/01/14 03:13:10;;;;;;;13.40;7.00;;;;;;;6.13;80.40;99839.70;102498;1253;1003073;-73
2023/01/14 03:15:44;;;;;;;11.90;7.00;;;;;;;6.09;80.41;99837.19;103175;1253;138781;-73
2023/01/14 03:18:21;;;;;;;13.60;6.90;;;;;;;6.07;80.65;99843.95;103315;1256;111500;-72
2023/01/14 03:20:53;;;;;;;10.20;6.30;;;;;;;6.05;80.62;99845.38;102498;1254;1002989;-73
2023/01/14 03:23:25;;;;;;;12.00;6.40;;;;;;;6.03;80.77;99846.11;103257;1254;138337;-73
2023/01/14 03:25:54;;;;;;;12.50;6.80;;;;;;;6.01;80.66;99847.86;103238;1254;108187;-73
2023/01/14 03:28:27;;;;;;;15.70;6.70;;;;;;;5.99;80.69;99853.27;103270;1253;138377;-75
2023/01/14 03:31:02;;;;;;;12.20;6.60;;;;;;;5.96;80.64;99851.27;103372;1253;110338;-74
2023/01/14 03:33:40;;;;;;;11.00;6.40;;;;;;;5.90;80.54;99850.49;103183;1253;138926;-73
2023/01/14 03:36:10;;;;;;;9.40;5.70;;;;;;;5.83;80.60;99863.73;103288;1258;97813;-74
2023/01/14 03:38:42;;;;;;;11.30;6.30;;;;;;;5.77;80.53;99864.89;103413;1253;108519;-74
2023/01/14 03:42:17;;;;;;;10.50;6.10;;;;;;;5.72;80.81;99863.58;103563;1253;138135;-73
2023/01/14 03:44:02;;;;;;;10.70;6.20;;;;;;;5.68;80.91;99871.59;103348;1254;110094;-74
2023/01/14 03:46:30;;;;;;;12.60;6.30;;;;;;;5.64;80.81;99875.13;103186;1255;138179;-74
2023/01/14 03:48:57;;;;;;;11.20;6.60;;;;;;;5.59;80.99;99879.02;103301;1254;97822;-74
2023/01/14 03:51:32;;;;;;;11.80;5.70;;;;;;;5.55;81.08;99885.45;103243;1253;138290;-75
2023/01/14 03:54:12;;;;;;;12.00;5.90;;;;;;;5.52;81.10;99884.65;103318;1253;99585;-73
2023/01/14 03:56:47;;;;;;;10.60;5.70;;;;;;;5.48;81.01;99887.64;103401;1253;110290;-74
2023/01/14 03:59:19;;;;;;;13.40;6.00;;;;;;;5.43;81.10;99888.26;103256;1254;138315;-74
2023/01/14 04:01:49;;;;;;;10.60;6.20;;;;;;;5.39;81.14;99891.43;103613;1257;99511;-73
2023/01/14 04:04:18;;;;;;;12.80;6.20;;;;;;;5.36;81.07;99888.70;103163;1254;138434;-73
2023/01/14 04:06:45;;;;;;;11.30;6.40;;;;;;;5.34;81.27;99889.77;102724;1256;1003620;-73
2023/01/14 04:09:13;;;;;;;12.50;6.30;;;;;;;5.32;81.36;99895.34;102869;1256;1016548;-74
2023/01/14 04:11:41;;;;;;;10.90;6.00;;;;;;;5.28;81.30;99891.09;103684;1253;107740;-73
2023/01/14 04:16:53;;;;;;;12.70;5.80;;;;;;;5.22;81.45;99900.86;103310;1252;138148;-74
2023/01/14 04:19:21;;;;;;;9.40;5.30;;;;;;;5.20;81.54;99894.66;103441;1256;97899;-73
2023/01/14 04:21:48;;;;;;;12.20;5.20;;;;;;;5.18;81.47;99897.27;103331;1253;139258;-74
2023/01/14 04:24:15;;;;;;;10.60;5.40;;;;;;;5.16;81.51;99899.02;102643;1251;1002981;-74
2023/01/14 04:26:42;;;;;;;7.80;5.00;;;;;;;5.13;81.48;99904.08;103443;1253;98325;-73
2023/01/14 04:29:09;;;;;;;11.60;5.50;;;;;;;5.11;81.60;99909.63;102588;1254;1002815;-73
2023/01/14 04:31:36;;;;;;;9.90;5.10;;;;;;;5.09;81.47;99908.80;103429;1256;97787;-73
2023/01/14 04:34:04;;;;;;;11.50;6.10;;;;;;;5.07;81.61;99911.08;103390;1253;138062;-73
2023/01/14 04:36:31;;;;;;;8.40;4.80;;;;;;;5.05;81.56;99912.30;103463;1256;106806;-73
2023/01/14 04:38:58;;;;;;;11.50;5.20;;;;;;;5.04;81.61;99916.13;103666;1254;98309;-72
2023/01/14 04:44:10;;;;;;;11.20;5.10;;;;;;;5.02;81.78;99918.02;103466;1256;97816;-73
2023/01/14 04:46:37;;;;;;;11.10;5.70;;;;;;;5.02;81.73;99912.86;102827;1255;1002256;-74
2023/01/14 04:49:04;;;;;;;9.60;5.00;;;;;;;5.03;81.72;99913.90;103401;1253;107058;-73
2023/01/14 04:51:32;;;;;;;10.60;5.50;;;;;;;5.04;81.59;99916.47;103396;1256;139927;-73
2023/01/14 04:53:59;;;;;;;10.00;5.00;;;;;;;5.05;81.72;99919.73;103315;1253;107065;-73
2023/01/14 04:56:26;;;;;;;12.50;5.30;;;;;;;5.06;81.80;99922.46;103412;1253;97897;-73
2023/01/14 04:58:53;;;;;;;8.10;4.60;;;;;;;5.09;81.70;99924.99;103309;1256;138485;-73
2023/01/14 05:01:20;;;;;;;10.70;4.90;;;;;;;5.11;81.44;99927.73;103407;1256;107870;-74
2023/01/14 05:03:47;;;;;;;11.50;5.00;;;;;;;5.14;81.75;99927.16;103494;1256;138471;-74
2023/01/14 05:06:15;;;;;;;12.50;5.30;;;;;;;5.16;81.72;99925.23;103471;1256;106882;-73
2023/01/14 05:08:42;;;;;;;9.00;4.60;;;;;;;5.19;81.41;99923.96;103962;1254;97791;-73
2023/01/14 05:11:09;;;;;;;9.50;4.60;;;;;;;5.21;81.22;99928.09;103418;1256;137871;-73
2023/01/14 05:13:36;;;;;;;9.20;4.30;;;;;;;5.23;81.34;99928.06;103491;1252;106996;-73
2023/01/14 05:16:03;;;;;;;8.60;4.40;;;;;;;5.26;81.32;99925.27;103284;1255;138286;-73
2023/01/14 05:18:30;;;;;;;8.00;4.20;;;;;;;5.29;81.18;99933.48;103485;1256;109006;-73
2023/01/14 05:20:58;;;;;;;9.10;4.30;;;;;;;5.32;81.07;99936.70;103405;1256;97685;-73
2023/01/14 05:23:25;;;;;;;8.80;4.30;;;;;;;5.34;81.02;99942.00;103333;1255;137894;-73
2023/01/14 05:25:52;;;;;;;10.40;4.00;;;;;;;5.37;80.79;99944.71;104381;1256;107911;-73
2023/01/14 05:28:21;;;;;;;7.10;4.00;;;;;;;5.40;80.78;99943.48;103729;1254;139275;-73
2023/01/14 05:30:48;;;;;;;11.20;4.60;;;;;;;5.43;80.61;99950.50;103450;1254;107217;-73
2023/01/14 05:33:15;;;;;;;7.30;4.00;;;;;;;5.45;80.75;99951.33;103428;1254;138467;-74
2023/01/14 05:35:43;;;;;;;9.40;3.90;;;;;;;5.49;80.67;99960.41;103376;1256;111070;-73
2023/01/14 05:38:10;;;;;;;7.00;3.40;;;;;;;5.52;80.60;99961.72;103412;1264;106570;-73
2023/01/14 05:40:38;;;;;;;8.20;3.90;;;;;;;5.56;80.51;99963.40;103282;1255;138005;-73
2023/01/14 05:45:51;;;;;;;9.90;4.00;;;;;;;5.56;80.53;99965.99;103455;1257;138452;-73
2023/01/14 05:48:21;;;;;;;11.30;4.10;;;;;;;5.58;80.56;99966.84;103458;1252;110787;-74
2023/01/14 05:50:51;;;;;;;10.90;4.20;;;;;;;5.57;80.45;99966.30;103485;1256;106731;-74
2023/01/14 05:53:19;;;;;;;10.50;3.80;;;;;;;5.58;80.43;99976.15;103370;1256;138182;-73
2023/01/14 05:55:47;;;;;;;7.90;3.70;;;;;;;5.55;80.24;99971.52;103390;1254;107640;-74
2023/01/14 05:58:14;;;;;;;10.20;4.10;;;;;;;5.52;80.28;99976.39;103273;1256;138069;-74
